Terminal Aerodrome Forecast
Issued by NWS

Home | Current Version | Previous Version | Text Only | Print | Product List | Glossary On
Versions: 1 2 3 4 5 6 7 8 9 10 11 12 13 14 15 16
000
FTUS43 KAPX 261100
TAFTVC
TAF
KTVC 261122Z 2612/2712 VRB03KT P6SM -SHRA BKN050 OVC100
     FM261400 24006KT P6SM VCSH OVC035
     FM261800 26007KT P6SM OVC035
     FM270100 VRB03KT P6SM BKN040
     FM270700 00000KT 4SM BR SCT040=

USA.gov is the U.S. government's official web portal to all federal, state and local government web resources and services.